Time;durP1;ratioP1;P1;durP2;ratioP2;P2;SDS_P1;SDS_P2;PMS_P1;PMS_P2;Temp;Humidity;BMP_temperature;BMP_pressure;BME280_temperature;BME280_humidity;BME280_pressure;Samples;Min_cycle;Max_cycle;Signal;HPM_P1;HPM_P2
2021/04/23 00:03:41;;;;;;;19.95;5.32;;;;;;;9.37;56.16;103014.84;5054985;27;762636;-83
2021/04/23 00:06:14;;;;;;;8.95;4.50;;;;;;;9.27;55.68;103018.19;5077127;28;20948;-81
2021/04/23 00:08:42;;;;;;;;;;;;;;;9.39;55.34;103015.78;5067408;28;20032;-81
2021/04/23 00:11:08;;;;;;;11.80;5.60;;;;;;;9.16;56.01;103016.22;5060640;28;20316;-80
2021/04/23 00:13:37;;;;;;;10.27;4.97;;;;;;;9.15;55.88;103017.06;5054898;28;20128;-80
2021/04/23 00:16:03;;;;;;;17.25;5.63;;;;;;;9.11;55.76;103016.97;5054691;28;20020;-80
2021/04/23 00:18:30;;;;;;;11.25;4.80;;;;;;;9.06;56.61;103016.88;5056020;28;20100;-81
2021/04/23 00:20:57;;;;;;;14.55;5.32;;;;;;;9.04;56.67;103014.19;5057524;28;20476;-80
2021/04/23 00:23:24;;;;;;;16.77;5.50;;;;;;;9.07;56.67;103008.06;5057234;28;20437;-81
2021/04/23 00:25:50;;;;;;;10.70;5.15;;;;;;;9.07;56.66;103005.44;5053928;28;20017;-80
2021/04/23 00:28:17;;;;;;;12.82;5.57;;;;;;;9.09;56.91;103008.13;5052795;28;20029;-81
2021/04/23 00:30:49;;;;;;;17.08;5.10;;;;;;;9.13;56.33;103018.78;5058420;28;20033;-81
2021/04/23 00:33:17;;;;;;;11.30;4.72;;;;;;;9.10;56.46;103010.78;5060241;28;20029;-79
2021/04/23 00:35:45;;;;;;;12.07;4.78;;;;;;;9.10;56.65;103015.19;5054906;28;20022;-80
2021/04/23 00:38:18;;;;;;;13.88;4.97;;;;;;;9.12;56.66;103013.47;5053905;28;20021;-80
2021/04/23 00:40:50;;;;;;;12.43;4.97;;;;;;;9.12;56.88;103010.81;5061257;28;20113;-80
2021/04/23 00:43:19;;;;;;;17.15;5.53;;;;;;;9.10;57.32;103013.44;5056984;28;20036;-80
2021/04/23 00:45:46;;;;;;;11.48;5.10;;;;;;;9.09;57.08;103010.78;5051081;28;20028;-80
2021/04/23 00:48:14;;;;;;;11.60;5.07;;;;;;;9.08;57.89;103009.84;5051365;28;20021;-79
2021/04/23 00:50:47;;;;;;;10.18;5.30;;;;;;;9.10;57.88;103015.19;5044096;28;20025;-79
2021/04/23 00:53:20;;;;;;;12.85;4.53;;;;;;;9.08;57.38;103017.78;5068142;28;20178;-79
2021/04/23 00:55:47;;;;;;;16.17;5.53;;;;;;;9.03;57.23;103020.38;5071202;28;20087;-80
2021/04/23 00:58:18;;;;;;;11.30;5.45;;;;;;;9.04;57.35;103019.47;5070794;28;20476;-79
2021/04/23 01:00:47;;;;;;;9.38;4.43;;;;;;;9.03;57.97;103017.72;5066336;28;20490;-79
2021/04/23 01:03:15;;;;;;;10.73;4.90;;;;;;;9.01;58.08;103007.94;5068434;28;20056;-80
2021/04/23 01:05:42;;;;;;;11.85;5.72;;;;;;;9.02;57.77;103015.00;5068029;28;20035;-79
2021/04/23 01:08:09;;;;;;;14.32;5.00;;;;;;;8.99;58.31;103014.97;5062047;28;20033;-80
2021/04/23 01:10:36;;;;;;;11.32;4.55;;;;;;;8.96;57.92;103010.50;5068445;28;20028;-82
2021/04/23 01:13:03;;;;;;;8.18;4.57;;;;;;;8.95;58.45;103013.09;5064009;28;20025;-80
2021/04/23 01:15:30;;;;;;;11.50;4.93;;;;;;;8.93;58.38;103013.06;5055086;28;20379;-80
2021/04/23 01:17:57;;;;;;;12.48;4.82;;;;;;;8.91;58.16;103017.44;5054982;28;20029;-81
2021/04/23 01:20:24;;;;;;;12.70;5.03;;;;;;;8.90;58.21;103011.25;5055166;28;20060;-81
2021/04/23 01:22:51;;;;;;;13.70;5.07;;;;;;;8.89;58.92;103005.94;5054536;28;20090;-80
2021/04/23 01:25:19;;;;;;;12.18;5.57;;;;;;;8.88;58.88;103014.72;5055152;28;20032;-81
2021/04/23 01:27:46;;;;;;;16.23;4.95;;;;;;;8.87;58.49;103018.22;5054585;28;20045;-81
2021/04/23 01:30:15;;;;;;;10.82;6.25;;;;;;;8.87;58.78;103012.94;5055053;28;20379;-82
2021/04/23 01:32:42;;;;;;;12.65;4.80;;;;;;;8.86;58.99;103003.22;5054729;28;20075;-81
2021/04/23 01:35:16;;;;;;;13.82;5.38;;;;;;;8.87;59.15;103010.28;5054517;28;20125;-83
2021/04/23 01:37:44;;;;;;;14.98;5.03;;;;;;;8.85;59.09;103009.38;5054020;28;20057;-80
2021/04/23 01:40:12;;;;;;;9.88;5.57;;;;;;;8.85;59.31;103009.38;5054862;28;20049;-82
2021/04/23 01:42:40;;;;;;;10.38;5.18;;;;;;;8.85;59.36;103010.25;5054823;28;20029;-80
2021/04/23 01:45:09;;;;;;;16.63;5.47;;;;;;;8.85;58.97;103004.97;5054783;28;20060;-81
2021/04/23 01:47:36;;;;;;;20.70;5.20;;;;;;;8.83;59.21;103026.94;5054552;28;20021;-83
2021/04/23 01:50:08;;;;;;;12.23;6.10;;;;;;;8.84;59.47;103016.41;5053989;28;20040;-83
2021/04/23 01:52:35;;;;;;;12.90;5.13;;;;;;;8.81;59.37;103023.38;5054476;28;20031;-81
2021/04/23 01:55:02;;;;;;;12.50;5.18;;;;;;;8.79;59.43;103026.00;5035048;28;20028;-79
2021/04/23 01:57:29;;;;;;;14.70;5.45;;;;;;;8.77;59.49;103024.16;5055002;28;20021;-79
2021/04/23 01:59:55;;;;;;;13.93;5.55;;;;;;;8.78;59.40;103028.59;5054400;28;20029;-80
2021/04/23 02:02:23;;;;;;;12.18;5.22;;;;;;;8.76;59.94;103025.03;5054098;28;20033;-81
2021/04/23 02:04:49;;;;;;;9.15;4.78;;;;;;;8.74;59.58;103020.59;5054076;28;20029;-80
2021/04/23 02:07:17;;;;;;;10.52;6.47;;;;;;;8.77;60.32;103030.34;5054367;28;20102;-80
2021/04/23 02:09:44;;;;;;;12.65;4.78;;;;;;;8.73;60.34;103026.75;5053395;28;20052;-81
2021/04/23 02:12:11;;;;;;;13.02;4.97;;;;;;;8.73;60.35;103033.78;5054037;28;20083;-81
2021/04/23 02:14:41;;;;;;;16.00;5.22;;;;;;;8.71;59.68;103027.56;5048804;28;20112;-80
2021/04/23 02:17:08;;;;;;;11.93;5.13;;;;;;;8.66;60.16;103026.56;5053752;28;20166;-80
2021/04/23 02:19:44;;;;;;;13.55;6.68;;;;;;;8.65;59.72;103033.59;5053524;28;20385;-79
2021/04/23 02:22:11;;;;;;;13.80;4.93;;;;;;;8.58;59.80;103029.03;5048494;28;20068;-81
2021/04/23 02:24:37;;;;;;;11.65;5.55;;;;;;;8.55;59.82;103031.63;5052833;28;20111;-80
2021/04/23 02:27:04;;;;;;;9.27;5.10;;;;;;;8.50;60.26;103033.22;5053705;28;20021;-80
2021/04/23 02:29:30;;;;;;;12.93;6.40;;;;;;;8.47;60.21;103030.53;5053137;28;20055;-81
2021/04/23 02:31:57;;;;;;;12.13;4.72;;;;;;;8.44;60.05;103031.31;5053607;28;20036;-80
2021/04/23 02:34:26;;;;;;;13.60;5.95;;;;;;;8.45;60.59;103024.28;5053706;28;20035;-80
2021/04/23 02:36:53;;;;;;;13.32;5.40;;;;;;;8.41;60.59;103023.28;5053601;28;20395;-83
2021/04/23 02:39:20;;;;;;;16.90;5.72;;;;;;;8.41;60.57;103028.59;5041004;28;20060;-82
2021/04/23 02:41:52;;;;;;;12.70;6.03;;;;;;;8.45;60.57;103038.38;5053609;28;20479;-83
2021/04/23 02:44:19;;;;;;;18.10;5.82;;;;;;;8.41;60.71;103042.69;5045256;28;20032;-80
2021/04/23 02:46:46;;;;;;;13.75;5.47;;;;;;;8.37;60.16;103048.78;5053480;28;20021;-82
2021/04/23 02:49:13;;;;;;;12.80;5.40;;;;;;;8.34;60.29;103051.31;5053067;28;20048;-82
2021/04/23 02:51:43;;;;;;;10.63;5.68;;;;;;;8.33;60.19;103040.72;5053152;28;20040;-81
2021/04/23 02:54:11;;;;;;;13.43;6.57;;;;;;;8.31;60.65;103045.06;5052745;28;20025;-81
2021/04/23 02:56:38;;;;;;;21.02;7.53;;;;;;;8.30;60.47;103048.56;5053158;28;20041;-81
2021/04/23 02:59:06;;;;;;;15.27;6.30;;;;;;;8.30;60.65;103041.53;5052962;28;20442;-81
2021/04/23 03:01:37;;;;;;;14.18;5.93;;;;;;;8.34;60.80;103053.97;5052952;28;20021;-80
2021/04/23 03:04:05;;;;;;;11.02;5.22;;;;;;;8.29;60.43;103047.69;5053378;28;20033;-81
2021/04/23 03:06:32;;;;;;;12.10;5.18;;;;;;;8.24;60.47;103057.25;5046497;28;20060;-81
2021/04/23 03:08:59;;;;;;;12.75;5.32;;;;;;;8.21;60.36;103050.13;5053424;28;20425;-81
2021/04/23 03:11:26;;;;;;;13.00;5.22;;;;;;;8.18;60.33;103057.09;5052598;28;20091;-82
2021/04/23 03:13:56;;;;;;;9.57;4.60;;;;;;;8.16;60.38;103054.41;5052413;28;20025;-81
2021/04/23 03:16:24;;;;;;;13.80;5.88;;;;;;;8.14;61.14;103055.19;5052121;28;20464;-80
2021/04/23 03:18:52;;;;;;;16.67;5.20;;;;;;;8.13;60.44;103061.34;5052925;28;20025;-81
2021/04/23 03:21:28;;;;;;;12.07;4.30;;;;;;;8.14;60.80;103071.03;5048520;28;20036;-80
2021/04/23 03:23:56;;;;;;;10.07;4.72;;;;;;;8.12;60.69;103072.75;5034640;28;20032;-81
2021/04/23 03:26:24;;;;;;;11.95;4.88;;;;;;;8.12;61.10;103080.69;5052507;28;20476;-81
2021/04/23 03:28:51;;;;;;;12.38;4.57;;;;;;;8.13;61.20;103074.56;5052420;28;20155;-81
2021/04/23 03:31:18;;;;;;;16.52;4.80;;;;;;;8.13;60.67;103080.72;5051826;28;20384;-80
2021/04/23 03:33:45;;;;;;;11.60;5.03;;;;;;;8.14;60.83;103074.59;5035149;28;20032;-81
2021/04/23 03:36:13;;;;;;;11.98;5.07;;;;;;;8.16;60.94;103071.97;5052139;28;20025;-81
2021/04/23 03:38:43;;;;;;;14.95;6.85;;;;;;;8.18;61.29;103078.22;5052458;28;20033;-82
2021/04/23 03:41:13;;;;;;;13.30;5.40;;;;;;;8.20;60.83;103076.47;5052251;28;20040;-80
2021/04/23 03:43:40;;;;;;;11.38;5.50;;;;;;;8.16;60.85;103079.91;5052469;28;20049;-81
2021/04/23 03:46:06;;;;;;;12.70;5.35;;;;;;;8.14;60.97;103074.59;5052177;28;20119;-81
2021/04/23 03:48:34;;;;;;;10.70;5.65;;;;;;;8.12;61.19;103078.03;5052132;28;20028;-81
2021/04/23 03:51:02;;;;;;;15.82;4.72;;;;;;;8.13;61.53;103074.56;5052281;28;20024;-81
2021/04/23 03:53:29;;;;;;;14.07;4.82;;;;;;;8.12;61.01;103076.28;5052388;28;20025;-82
2021/04/23 03:55:55;;;;;;;11.25;4.38;;;;;;;8.11;61.25;103077.13;5052426;28;20071;-83
2021/04/23 03:58:31;;;;;;;11.63;5.55;;;;;;;8.16;61.02;103082.53;5051648;28;20032;-80
2021/04/23 04:01:12;;;;;;;12.02;4.63;;;;;;;8.17;61.19;103079.06;5038590;28;20040;-80
2021/04/23 04:03:49;;;;;;;15.90;5.80;;;;;;;8.14;61.52;103076.31;5046186;28;20492;-80
2021/04/23 04:06:20;;;;;;;17.15;4.57;;;;;;;8.12;60.93;103072.75;5048702;28;20028;-80
2021/04/23 04:08:46;;;;;;;9.82;4.13;;;;;;;8.06;61.50;103074.41;5052312;28;20373;-82
2021/04/23 04:11:13;;;;;;;19.48;5.43;;;;;;;8.02;61.19;103072.50;5051691;28;20029;-81
2021/04/23 04:13:39;;;;;;;10.57;5.40;;;;;;;8.01;61.68;103076.03;5051692;28;20060;-81
2021/04/23 04:16:05;;;;;;;13.75;4.22;;;;;;;7.97;61.26;103078.53;5051594;28;20079;-81
2021/04/23 04:18:32;;;;;;;16.33;6.13;;;;;;;7.92;61.23;103081.03;5052214;28;20125;-82
2021/04/23 04:20:59;;;;;;;19.20;4.93;;;;;;;7.90;61.24;103085.38;5051973;28;20037;-81
2021/04/23 04:23:26;;;;;;;9.82;4.28;;;;;;;7.88;61.47;103084.47;5051362;28;20458;-82
2021/04/23 04:25:56;;;;;;;10.88;4.03;;;;;;;7.84;61.27;103091.41;5051820;28;20039;-82
2021/04/23 04:28:24;;;;;;;7.93;3.92;;;;;;;7.76;61.09;103091.19;5051232;28;20052;-81
2021/04/23 04:30:50;;;;;;;10.43;4.13;;;;;;;7.72;60.61;103094.56;5051971;28;20108;-80
2021/04/23 04:33:17;;;;;;;10.15;4.18;;;;;;;7.67;61.07;103103.22;5051573;28;20096;-82
2021/04/23 04:35:44;;;;;;;10.82;4.15;;;;;;;7.61;61.02;103103.94;5051699;28;20110;-81
2021/04/23 04:38:12;;;;;;;8.73;4.18;;;;;;;7.58;61.24;103106.50;5050837;28;20064;-81
2021/04/23 04:40:40;;;;;;;6.80;4.03;;;;;;;7.53;60.99;103110.75;5051105;28;20503;-80
2021/04/23 04:43:09;;;;;;;10.10;4.03;;;;;;;7.52;61.19;103114.22;5051228;28;20044;-81
2021/04/23 04:45:37;;;;;;;15.88;4.65;;;;;;;7.50;61.07;103113.28;5051796;28;20027;-81
2021/04/23 04:48:05;;;;;;;6.63;4.15;;;;;;;7.50;61.31;103115.91;5051864;28;20094;-81
2021/04/23 04:50:36;;;;;;;14.65;4.90;;;;;;;7.52;61.41;103119.50;5055668;28;20115;-81
2021/04/23 04:53:05;;;;;;;13.80;4.13;;;;;;;7.56;61.37;103124.00;5037526;28;20158;-82
2021/04/23 04:55:35;;;;;;;13.38;4.28;;;;;;;7.53;61.60;103123.94;5054991;28;20025;-82
2021/04/23 04:58:03;;;;;;;12.55;5.05;;;;;;;7.52;61.71;103128.31;5054657;28;20024;-80
2021/04/23 05:00:30;;;;;;;12.40;4.68;;;;;;;7.56;61.58;103139.84;5054960;28;20100;-80
2021/04/23 05:02:57;;;;;;;14.52;4.72;;;;;;;7.55;61.71;103127.50;5055070;28;20484;-80
2021/04/23 05:05:24;;;;;;;14.57;5.30;;;;;;;7.56;61.86;103139.84;5055314;28;20035;-81
2021/04/23 05:07:52;;;;;;;11.55;4.47;;;;;;;7.57;61.84;103142.53;5054078;28;20052;-79
2021/04/23 05:10:18;;;;;;;10.90;3.75;;;;;;;7.56;61.84;103143.41;5054781;28;20101;-80
2021/04/23 05:12:44;;;;;;;12.30;4.78;;;;;;;7.58;61.82;103143.44;5055086;28;20035;-80
2021/04/23 05:15:12;;;;;;;10.48;4.25;;;;;;;7.59;61.71;103151.38;5054944;28;20064;-80
2021/04/23 05:17:38;;;;;;;11.48;4.25;;;;;;;7.59;61.68;103151.38;5048945;28;20155;-81
2021/04/23 05:20:07;;;;;;;9.98;4.28;;;;;;;7.63;61.91;103157.66;5054725;28;20109;-81
2021/04/23 05:22:35;;;;;;;11.48;4.32;;;;;;;7.68;61.98;103145.47;5054146;28;20399;-84
2021/04/23 05:25:07;;;;;;;12.98;4.70;;;;;;;7.74;61.96;103148.31;5055281;28;20061;-82
2021/04/23 05:27:34;;;;;;;7.93;4.20;;;;;;;7.73;62.06;103151.78;5047381;28;21548;-81
2021/04/23 05:30:00;;;;;;;12.40;4.05;;;;;;;7.74;61.63;103145.66;5053780;28;20087;-82
2021/04/23 05:32:28;;;;;;;9.02;3.60;;;;;;;7.80;62.05;103144.03;5050521;28;20041;-81
2021/04/23 05:34:54;;;;;;;11.63;4.43;;;;;;;7.84;61.96;103148.56;5051844;28;20048;-81
2021/04/23 05:37:21;;;;;;;5.13;3.67;;;;;;;7.83;61.82;103150.31;5055583;28;20451;-83
2021/04/23 05:39:49;;;;;;;10.48;3.90;;;;;;;7.84;61.86;103153.81;5054480;28;20033;-81
2021/04/23 05:42:16;;;;;;;10.88;3.53;;;;;;;7.86;62.16;103149.50;5054653;28;20388;-81
2021/04/23 05:44:43;;;;;;;7.88;3.10;;;;;;;7.89;61.88;103145.19;5050497;28;20095;-81
2021/04/23 05:47:10;;;;;;;9.13;3.15;;;;;;;7.92;61.93;103150.59;5050930;28;20104;-83
2021/04/23 05:49:36;;;;;;;10.45;3.92;;;;;;;7.95;61.50;103157.69;5036028;28;20032;-83
2021/04/23 05:52:05;;;;;;;13.82;3.13;;;;;;;8.00;61.68;103156.06;5054248;28;20051;-80
2021/04/23 05:54:31;;;;;;;12.65;3.10;;;;;;;8.02;61.66;103162.28;5054199;28;20464;-82
2021/04/23 05:56:58;;;;;;;8.63;3.75;;;;;;;8.07;61.85;103154.50;5053680;28;20025;-82
2021/04/23 05:59:24;;;;;;;8.02;3.03;;;;;;;8.09;61.69;103164.25;5052535;28;20545;-84
2021/04/23 06:01:50;;;;;;;8.35;4.47;;;;;;;8.14;62.03;103168.75;5052881;28;20123;-81
2021/04/23 06:04:16;;;;;;;9.95;4.47;;;;;;;8.18;62.16;103174.16;5052469;28;20027;-80
2021/04/23 06:06:48;;;;;;;11.60;4.57;;;;;;;8.30;61.71;103172.69;5053676;28;20358;-82
2021/04/23 06:09:15;;;;;;;7.60;4.22;;;;;;;8.27;62.46;103170.88;5037213;23;20180;-78
2021/04/23 06:11:41;;;;;;;8.23;4.18;;;;;;;8.34;62.34;103171.94;5005939;28;20022;-78
2021/04/23 06:14:07;;;;;;;8.02;4.38;;;;;;;8.38;62.18;103172.06;4999162;28;20018;-78
2021/04/23 06:16:35;;;;;;;11.75;4.88;;;;;;;8.47;62.28;103178.47;4979904;28;20044;-79
2021/04/23 06:19:03;;;;;;;12.68;4.82;;;;;;;8.54;62.34;103181.31;4992045;28;20034;-79
2021/04/23 06:21:29;;;;;;;10.60;5.57;;;;;;;8.62;61.93;103186.78;5005454;28;20038;-78
2021/04/23 06:23:55;;;;;;;11.68;4.30;;;;;;;8.69;61.85;103180.81;4990739;28;20030;-78
2021/04/23 06:26:22;;;;;;;13.20;5.60;;;;;;;8.77;61.79;103183.66;4992708;28;21511;-79
2021/04/23 06:28:48;;;;;;;14.80;5.53;;;;;;;8.84;62.00;103184.72;4982187;28;20042;-84
2021/04/23 06:31:19;;;;;;;26.33;6.57;;;;;;;8.87;61.72;103179.47;5002426;28;20062;-85
2021/04/23 06:33:49;;;;;;;26.65;12.30;;;;;;;8.95;61.57;103188.50;4994456;28;20437;-79
2021/04/23 06:36:16;;;;;;;22.40;10.32;;;;;;;9.01;61.64;103182.47;4996884;28;20084;-78
2021/04/23 06:38:43;;;;;;;19.95;6.32;;;;;;;9.10;61.43;103192.38;4994374;28;20084;-79
2021/04/23 06:41:11;;;;;;;18.52;6.35;;;;;;;9.16;61.70;103193.44;4990931;28;20033;-79
2021/04/23 06:43:38;;;;;;;19.42;6.05;;;;;;;9.22;61.18;103193.56;4988959;28;20124;-79
2021/04/23 06:46:06;;;;;;;17.23;6.50;;;;;;;9.29;61.38;103197.25;5005792;28;20030;-80
2021/04/23 06:48:32;;;;;;;20.92;6.80;;;;;;;9.30;61.16;103196.38;5001257;28;20037;-79
2021/04/23 06:51:03;;;;;;;20.23;6.10;;;;;;;9.38;61.30;103197.47;4992820;28;20023;-79
2021/04/23 06:53:29;;;;;;;11.77;5.35;;;;;;;9.47;61.17;103202.06;4993122;28;20042;-80
2021/04/23 06:55:57;;;;;;;14.38;5.85;;;;;;;9.57;59.99;103197.88;4997767;28;20451;-81
2021/04/23 06:58:23;;;;;;;16.88;5.85;;;;;;;9.59;60.52;103198.78;5003226;28;20045;-80
2021/04/23 07:00:51;;;;;;;18.83;8.82;;;;;;;9.66;60.19;103197.19;4993762;28;20046;-80
2021/04/23 07:03:17;;;;;;;18.45;7.22;;;;;;;9.72;59.40;103194.69;5000988;28;20125;-82
2021/04/23 07:05:45;;;;;;;13.60;5.43;;;;;;;9.77;59.20;103194.75;4976466;28;20520;-80
2021/04/23 07:08:12;;;;;;;17.45;6.07;;;;;;;9.84;59.14;103209.91;4993624;28;20039;-81
2021/04/23 07:10:41;;;;;;;13.52;5.30;;;;;;;9.96;58.79;103196.06;4993314;28;20023;-80
2021/04/23 07:13:08;;;;;;;11.93;5.57;;;;;;;9.95;58.45;103192.50;4993393;28;20042;-81
2021/04/23 07:15:37;;;;;;;22.48;6.65;;;;;;;10.03;58.76;103193.56;4999160;28;20030;-82
2021/04/23 07:18:04;;;;;;;11.55;4.03;;;;;;;10.02;58.47;103190.88;4989933;28;20448;-81
2021/04/23 07:20:30;;;;;;;12.63;5.28;;;;;;;10.10;57.67;103186.59;4993564;28;20563;-88
2021/04/23 07:22:57;;;;;;;13.15;5.28;;;;;;;10.14;57.53;103183.19;4992680;28;20440;-81
2021/04/23 07:25:24;;;;;;;9.60;4.70;;;;;;;10.25;57.39;103193.06;4999460;28;20105;-80
2021/04/23 07:27:51;;;;;;;12.07;5.10;;;;;;;10.26;56.89;103187.78;5005567;28;20783;-81
2021/04/23 07:30:20;;;;;;;14.25;4.70;;;;;;;10.33;57.19;103191.44;4994549;28;20026;-81
2021/04/23 07:32:48;;;;;;;15.75;5.28;;;;;;;10.38;57.00;103183.63;4993216;28;20425;-82
2021/04/23 07:35:15;;;;;;;11.63;4.75;;;;;;;10.44;56.68;103186.38;4993309;28;20120;-81
2021/04/23 07:37:44;;;;;;;9.35;4.47;;;;;;;10.51;56.30;103191.81;4993726;28;20438;-81
2021/04/23 07:40:14;;;;;;;11.05;4.78;;;;;;;10.55;56.38;103184.81;4992842;28;20447;-82
2021/04/23 07:42:40;;;;;;;18.13;5.80;;;;;;;10.62;55.96;103181.41;4993253;28;20041;-81
2021/04/23 07:45:09;;;;;;;15.45;5.10;;;;;;;10.67;56.06;103187.69;4993083;28;20057;-81
2021/04/23 07:47:35;;;;;;;14.25;5.47;;;;;;;10.67;55.51;103187.69;4986144;28;20393;-81
2021/04/23 07:50:04;;;;;;;18.17;5.07;;;;;;;10.79;55.42;103186.09;4993111;28;20022;-81
2021/04/23 07:52:30;;;;;;;14.00;5.70;;;;;;;10.81;55.45;103195.88;4975754;28;20482;-81
2021/04/23 07:54:57;;;;;;;14.05;4.63;;;;;;;10.82;55.26;103186.16;4992816;28;20105;-80
2021/04/23 07:57:24;;;;;;;10.98;5.00;;;;;;;10.96;55.00;103184.63;4992751;28;20065;-81
2021/04/23 07:59:51;;;;;;;14.90;5.30;;;;;;;11.03;54.68;103184.72;4975399;28;20398;-82
2021/04/23 08:02:17;;;;;;;14.75;5.35;;;;;;;11.10;54.20;103191.91;4976520;28;20586;-80
2021/04/23 08:04:43;;;;;;;10.15;4.57;;;;;;;11.21;54.11;103192.09;4997815;28;20076;-82
2021/04/23 08:07:11;;;;;;;15.15;5.13;;;;;;;11.25;53.81;103183.28;5008124;28;20045;-81
2021/04/23 08:09:39;;;;;;;13.27;4.75;;;;;;;11.42;53.58;103186.19;4997357;28;20030;-83
2021/04/23 08:12:07;;;;;;;15.27;4.85;;;;;;;11.42;53.24;103188.84;4995562;28;20124;-82
2021/04/23 08:14:33;;;;;;;16.98;5.75;;;;;;;11.47;53.17;103192.47;5003149;28;20022;-82
2021/04/23 08:17:00;;;;;;;17.73;4.60;;;;;;;11.49;53.00;103188.94;4992601;28;20493;-82
2021/04/23 08:19:26;;;;;;;14.15;4.25;;;;;;;11.42;52.13;103188.84;4975017;28;20038;-81
2021/04/23 08:21:52;;;;;;;14.57;4.65;;;;;;;11.59;52.31;103191.72;5004098;28;20045;-81
2021/04/23 08:24:19;;;;;;;16.35;4.50;;;;;;;11.69;52.24;103187.44;5003081;28;20057;-81
2021/04/23 08:26:45;;;;;;;10.50;4.18;;;;;;;11.76;52.08;103189.28;5007286;28;20026;-84
2021/04/23 08:29:12;;;;;;;11.13;4.13;;;;;;;11.83;51.67;103188.50;4999460;28;20105;-82
2021/04/23 08:31:42;;;;;;;11.20;3.65;;;;;;;11.86;51.27;103185.00;4995037;28;20042;-80
2021/04/23 08:34:09;;;;;;;9.82;3.90;;;;;;;11.92;51.08;103193.03;4998979;28;20050;-81
2021/04/23 08:36:36;;;;;;;19.15;4.35;;;;;;;11.97;50.67;103194.94;4996553;28;20018;-88
2021/04/23 08:39:04;;;;;;;8.38;3.70;;;;;;;12.10;50.89;103190.63;5002843;28;20039;-91
2021/04/23 08:41:31;;;;;;;10.88;3.97;;;;;;;12.17;50.68;103183.59;5003143;28;20488;-82
2021/04/23 08:43:57;;;;;;;9.05;4.35;;;;;;;12.27;51.18;103188.16;4996024;28;20030;-86
2021/04/23 08:46:23;;;;;;;7.82;3.45;;;;;;;12.37;51.20;103180.28;5006747;28;20089;-84
2021/04/23 08:48:50;;;;;;;10.00;4.10;;;;;;;12.39;50.95;103176.75;4998388;28;20421;-83
2021/04/23 08:51:21;;;;;;;18.27;5.00;;;;;;;12.66;50.77;103182.31;4998974;28;20062;-83
2021/04/23 08:53:50;;;;;;;14.30;5.18;;;;;;;12.67;50.43;103189.41;5005985;28;20153;-84
2021/04/23 08:56:16;;;;;;;17.90;5.30;;;;;;;12.64;50.69;103181.44;5000920;28;20433;-82
2021/04/23 08:58:43;;;;;;;16.98;5.55;;;;;;;12.59;50.64;103179.59;4998076;28;20096;-82
2021/04/23 09:01:09;;;;;;;13.40;4.88;;;;;;;12.55;50.44;103177.81;4998387;28;20038;-82
2021/04/23 09:03:35;;;;;;;12.35;4.32;;;;;;;12.55;50.15;103169.81;5008913;28;20555;-81
2021/04/23 09:11:38;;;;;;;18.00;5.10;;;;;;;12.89;49.65;103172.75;5091111;27;20393;-82
2021/04/23 09:27:48;;;;;;;14.60;5.20;;;;;;;13.64;48.17;103173.25;5090838;28;20399;-85
2021/04/23 09:30:15;;;;;;;11.18;4.60;;;;;;;13.78;48.55;103163.50;5051158;28;20037;-83
2021/04/23 09:32:42;;;;;;;11.13;4.57;;;;;;;13.82;47.61;103164.41;5050202;28;20029;-86
2021/04/23 09:37:55;;;;;;;15.85;4.95;;;;;;;14.13;47.15;103178.75;5102712;27;20357;-81
2021/04/23 09:40:31;;;;;;;10.95;4.18;;;;;;;14.19;46.12;103170.78;5070387;28;20028;-81
2021/04/23 09:43:00;;;;;;;13.98;4.07;;;;;;;14.32;46.16;103181.47;5070633;28;20024;-81
2021/04/23 09:45:32;;;;;;;17.98;5.10;;;;;;;14.37;45.48;103167.22;5070615;28;20025;-81
2021/04/23 09:47:58;;;;;;;;;;;;;;;14.67;45.22;103172.63;5070945;28;20488;-81
2021/04/23 09:50:33;;;;;;;16.48;3.97;;;;;;;14.54;45.76;103169.94;5070040;28;19939;-83
2021/04/23 09:52:59;;;;;;;9.75;3.67;;;;;;;14.55;46.16;103166.38;5070399;28;20091;-83
2021/04/23 09:55:28;;;;;;;13.82;4.10;;;;;;;14.69;45.61;103176.16;5070333;28;20029;-84
2021/04/23 10:00:39;;;;;;;13.35;4.07;;;;;;;15.06;44.92;103167.28;5090764;28;20411;-83
2021/04/23 10:03:07;;;;;;;15.27;4.60;;;;;;;15.16;44.63;103172.56;5070908;28;20072;-82
2021/04/23 10:05:40;;;;;;;16.42;4.35;;;;;;;15.29;44.53;103160.09;5069613;28;20044;-82
2021/04/23 10:08:22;;;;;;;12.52;4.22;;;;;;;15.30;43.80;103166.31;5066951;28;20033;-82
2021/04/23 10:10:53;;;;;;;11.05;4.20;;;;;;;15.48;44.11;103168.06;5050454;28;20035;-82
2021/04/23 10:13:32;;;;;;;12.73;4.18;;;;;;;15.53;44.01;103169.81;5050326;28;20033;-83
2021/04/23 10:16:00;;;;;;;20.02;4.32;;;;;;;15.65;43.59;103173.31;5050450;28;20021;-82
2021/04/23 10:18:27;;;;;;;30.45;14.05;;;;;;;15.74;43.21;103167.03;5049759;28;20035;-81
2021/04/23 10:20:56;;;;;;;15.68;5.55;;;;;;;15.75;43.78;103168.81;5050188;28;20037;-83
2021/04/23 10:23:24;;;;;;;16.50;4.55;;;;;;;15.80;43.25;103167.91;5049871;28;20017;-83
2021/04/23 10:25:58;;;;;;;8.20;3.58;;;;;;;15.94;43.47;103169.69;5051266;28;20037;-91
2021/04/23 10:28:26;;;;;;;10.70;3.75;;;;;;;15.93;43.96;103173.25;5050312;28;20044;-89
2021/04/23 10:30:55;;;;;;;9.30;3.92;;;;;;;16.04;43.58;103174.06;5050134;28;20540;-89
2021/04/23 10:33:23;;;;;;;9.95;3.92;;;;;;;16.18;43.52;103168.63;5049820;28;20026;-90
2021/04/23 10:35:55;;;;;;;8.75;3.78;;;;;;;16.25;43.90;103167.69;5050647;28;20040;-88
2021/04/23 10:38:39;;;;;;;9.52;4.40;;;;;;;16.31;43.22;103164.06;5050778;28;20033;-91
2021/04/23 10:41:07;;;;;;;14.32;5.45;;;;;;;16.29;42.60;103163.22;5050511;28;20028;-90
2021/04/23 10:43:35;;;;;;;9.18;4.25;;;;;;;16.37;42.26;103169.38;5049918;28;20114;-90
2021/04/23 10:48:48;;;;;;;9.00;4.00;;;;;;;16.44;42.73;103165.78;5070568;28;20779;-88
2021/04/23 10:56:52;;;;;;;13.70;5.47;;;;;;;16.73;41.90;103159.28;5070811;28;20354;-89
2021/04/23 11:02:15;;;;;;;8.55;4.00;;;;;;;16.82;41.80;103153.88;5071401;27;20836;-87
2021/04/23 11:04:59;;;;;;;12.73;4.30;;;;;;;16.91;41.45;103146.63;5051319;28;20037;-85
2021/04/23 11:07:26;;;;;;;11.13;3.85;;;;;;;16.97;41.28;103143.91;5051081;28;20215;-88
2021/04/23 11:10:01;;;;;;;11.32;3.92;;;;;;;17.11;41.21;103142.00;5051942;28;20037;-89
2021/04/23 11:12:30;;;;;;;13.27;4.50;;;;;;;17.17;40.90;103140.16;5050865;28;20033;-90
2021/04/23 11:15:16;;;;;;;13.30;5.00;;;;;;;17.33;40.60;103140.88;5050537;28;20087;-89
2021/04/23 11:17:44;;;;;;;10.05;4.32;;;;;;;17.26;40.84;103137.38;5051430;28;20121;-89
2021/04/23 11:20:25;;;;;;;11.68;5.13;;;;;;;17.40;40.45;103127.38;5050605;28;20487;-85
2021/04/23 11:22:54;;;;;;;41.55;19.10;;;;;;;17.40;40.47;103127.38;5036918;28;20483;-85
2021/04/23 11:25:21;;;;;;;12.43;6.47;;;;;;;17.52;40.78;103125.44;5029066;28;20404;-85
2021/04/23 11:31:03;;;;;;;16.90;4.97;;;;;;;17.81;39.10;103121.47;5104786;27;20366;-85
2021/04/23 11:33:52;;;;;;;14.80;4.63;;;;;;;17.83;38.38;103125.03;5099416;28;20032;-85
2021/04/23 11:36:38;;;;;;;12.02;4.53;;;;;;;17.78;39.51;103127.78;5098826;28;20021;-86
2021/04/23 11:39:11;;;;;;;9.63;3.90;;;;;;;17.91;38.98;103123.16;5098423;28;20080;-84
2021/04/23 11:41:37;;;;;;;;;;;;;;;18.17;38.52;103117.41;5100911;28;20027;-84
2021/04/23 11:44:24;;;;;;;12.80;4.45;;;;;;;17.99;38.80;103121.25;5090620;28;19929;-84
2021/04/23 11:46:53;;;;;;;10.65;4.15;;;;;;;18.08;38.93;103113.09;5089049;28;20028;-85
2021/04/23 11:49:20;;;;;;;12.52;4.38;;;;;;;18.09;38.95;103120.22;5096490;28;20070;-84
2021/04/23 11:51:50;;;;;;;11.57;4.90;;;;;;;18.17;39.25;103112.06;5093927;28;20081;-84
2021/04/23 11:54:35;;;;;;;11.18;4.82;;;;;;;18.29;39.49;103113.63;5099277;28;20026;-82
2021/04/23 11:57:04;;;;;;;9.95;3.90;;;;;;;18.36;38.81;103109.94;5101503;28;20028;-83
2021/04/23 11:59:30;;;;;;;14.02;4.07;;;;;;;18.48;38.60;103113.31;5102024;28;20490;-84
2021/04/23 12:01:57;;;;;;;9.15;3.95;;;;;;;18.51;38.30;103107.94;5090729;28;20024;-81
2021/04/23 12:04:44;;;;;;;13.13;4.40;;;;;;;18.67;37.39;103096.00;5098897;28;20028;-83
2021/04/23 12:07:11;;;;;;;10.52;4.78;;;;;;;18.60;37.31;103102.38;5100647;28;20099;-82
2021/04/23 12:09:37;;;;;;;11.82;3.97;;;;;;;18.56;36.71;103109.59;5092611;28;20379;-86
2021/04/23 12:12:09;;;;;;;9.40;4.20;;;;;;;18.66;36.81;103102.28;5104228;28;20031;-81